Time;durP1;ratioP1;P1;durP2;ratioP2;P2;SDS_P1;SDS_P2;PMS_P1;PMS_P2;Temp;Humidity;BMP_temperature;BMP_pressure;BME280_temperature;BME280_humidity;BME280_pressure;Samples;Min_cycle;Max_cycle;Signal;HPM_P1;HPM_P2
2022/04/25 00:00:46;;;;;;;;;;;7.50;99.90;;;;;;5053450;28;19916;-71
2022/04/25 00:03:11;;;;;;;;;;;7.50;99.90;;;;;;5051238;28;20000;-71
2022/04/25 00:05:37;;;;;;;;;;;7.50;99.90;;;;;;5053415;28;19915;-71
2022/04/25 00:08:02;;;;;;;;;;;7.50;99.90;;;;;;5053511;28;19935;-71
2022/04/25 00:10:28;;;;;;;;;;;7.50;99.90;;;;;;5053458;28;20415;-71
2022/04/25 00:12:53;;;;;;;;;;;7.50;99.90;;;;;;5053627;28;20122;-71
2022/04/25 00:15:20;;;;;;;;;;;7.50;99.90;;;;;;5053435;28;19951;-71
2022/04/25 00:17:46;;;;;;;;;;;7.50;99.90;;;;;;5053301;28;19951;-71
2022/04/25 00:20:11;;;;;;;;;;;7.50;99.90;;;;;;5053273;28;19913;-72
2022/04/25 00:22:37;;;;;;;;;;;7.50;99.90;;;;;;5053060;28;19908;-71
2022/04/25 00:25:02;;;;;;;;;;;7.60;99.90;;;;;;5052976;28;20366;-71
2022/04/25 00:27:29;;;;;;;;;;;7.60;99.90;;;;;;5053229;28;20007;-71
2022/04/25 00:29:56;;;;;;;;;;;7.60;99.90;;;;;;5052248;28;19920;-71
2022/04/25 00:32:21;;;;;;;;;;;7.60;99.90;;;;;;5057242;28;20297;-71
2022/04/25 00:34:47;;;;;;;;;;;7.60;99.90;;;;;;5058421;28;19913;-71
2022/04/25 00:37:12;;;;;;;;;;;7.60;99.90;;;;;;5053029;28;20311;-71
2022/04/25 00:39:38;;;;;;;;;;;7.60;99.90;;;;;;5052840;28;19918;-71
2022/04/25 00:42:03;;;;;;;;;;;7.60;99.90;;;;;;5052777;28;20330;-71
2022/04/25 00:44:29;;;;;;;;;;;7.60;99.90;;;;;;5049587;28;19909;-71
2022/04/25 00:46:55;;;;;;;;;;;7.60;99.90;;;;;;5052808;28;20401;-71
2022/04/25 00:49:21;;;;;;;;;;;7.70;99.90;;;;;;5052830;28;19909;-71
2022/04/25 00:51:47;;;;;;;;;;;7.70;99.90;;;;;;5052424;28;20611;-71
2022/04/25 00:54:13;;;;;;;;;;;7.70;99.90;;;;;;5052985;28;20214;-71
2022/04/25 00:56:38;;;;;;;;;;;7.70;99.90;;;;;;5052758;28;19995;-71
2022/04/25 00:59:04;;;;;;;;;;;7.70;99.90;;;;;;5052828;28;19935;-71
2022/04/25 01:01:31;;;;;;;;;;;7.70;99.90;;;;;;5052281;28;19920;-72
2022/04/25 01:03:57;;;;;;;;;;;7.70;99.90;;;;;;5052512;28;20335;-72
2022/04/25 01:06:22;;;;;;;;;;;7.70;99.90;;;;;;5049823;28;19909;-71
2022/04/25 01:08:50;;;;;;;;;;;7.70;99.90;;;;;;5048492;28;19966;-71
2022/04/25 01:11:16;;;;;;;;;;;7.70;99.90;;;;;;5047688;28;20384;-72
2022/04/25 01:13:43;;;;;;;;;;;7.70;99.90;;;;;;5052076;28;19908;-72
2022/04/25 01:16:08;;;;;;;;;;;7.70;99.90;;;;;;5052340;28;20397;-72
2022/04/25 01:18:34;;;;;;;;;;;7.70;99.90;;;;;;5050049;28;20008;-72
2022/04/25 01:21:00;;;;;;;;;;;7.70;99.90;;;;;;5051506;28;19913;-71
2022/04/25 01:28:54;;;;;;;;;;;7.60;99.90;;;;;;5052531;28;19916;-72
2022/04/25 01:31:20;;;;;;;;;;;7.60;99.90;;;;;;5051108;28;19917;-71
2022/04/25 01:33:45;;;;;;;;;;;7.60;99.90;;;;;;5050119;28;20011;-71
2022/04/25 01:36:11;;;;;;;;;;;7.60;99.90;;;;;;5051743;28;19916;-72
2022/04/25 01:38:37;;;;;;;;;;;7.60;99.90;;;;;;5051804;28;19952;-72
2022/04/25 01:41:02;;;;;;;;;;;7.60;99.90;;;;;;5051701;28;19917;-72
2022/04/25 01:43:28;;;;;;;;;;;7.70;99.90;;;;;;5051598;28;19916;-71
2022/04/25 01:45:53;;;;;;;;;;;7.60;99.90;;;;;;5045637;28;19915;-72
2022/04/25 01:48:19;;;;;;;;;;;7.60;99.90;;;;;;5051294;28;20345;-72
2022/04/25 01:50:44;;;;;;;;;;;7.60;99.90;;;;;;5051575;28;19912;-71
2022/04/25 01:53:10;;;;;;;;;;;7.60;99.90;;;;;;5051184;28;19909;-71
2022/04/25 01:55:35;;;;;;;;;;;7.60;99.90;;;;;;5051630;28;19909;-71
2022/04/25 01:58:01;;;;;;;;;;;7.60;99.90;;;;;;5051523;28;19943;-72
2022/04/25 02:00:26;;;;;;;;;;;7.60;99.90;;;;;;5051341;28;19917;-71
2022/04/25 02:02:52;;;;;;;;;;;7.50;99.90;;;;;;5051083;28;20285;-71
2022/04/25 02:05:17;;;;;;;;;;;7.50;99.90;;;;;;5051261;28;19909;-72
2022/04/25 02:07:43;;;;;;;;;;;7.50;99.90;;;;;;5051674;28;20341;-72
2022/04/25 02:10:09;;;;;;;;;;;7.50;99.90;;;;;;5051385;28;19912;-72
2022/04/25 02:12:34;;;;;;;;;;;7.50;99.90;;;;;;5051519;28;20289;-72
2022/04/25 02:15:00;;;;;;;;;;;7.50;99.90;;;;;;5050304;28;20287;-72
2022/04/25 02:17:26;;;;;;;;;;;7.50;99.90;;;;;;5050716;28;20305;-73
2022/04/25 02:19:51;;;;;;;;;;;7.40;99.90;;;;;;5051064;28;20007;-72
2022/04/25 02:22:19;;;;;;;;;;;7.30;99.90;;;;;;5046457;28;20091;-72
2022/04/25 02:24:45;;;;;;;;;;;7.30;99.90;;;;;;5050829;28;20310;-72
2022/04/25 02:27:10;;;;;;;;;;;7.20;99.90;;;;;;5051620;28;19963;-73
2022/04/25 02:29:40;;;;;;;;;;;7.10;99.90;;;;;;5052521;28;20362;-72
2022/04/25 02:32:06;;;;;;;;;;;7.00;99.90;;;;;;5045456;28;19974;-72
2022/04/25 02:34:31;;;;;;;;;;;6.80;99.90;;;;;;5050841;28;20378;-72
2022/04/25 02:36:57;;;;;;;;;;;6.60;99.90;;;;;;5051156;28;19909;-72
2022/04/25 02:39:23;;;;;;;;;;;6.60;99.90;;;;;;5051831;28;19916;-72
2022/04/25 02:41:49;;;;;;;;;;;6.50;99.90;;;;;;5052245;28;19916;-72
2022/04/25 02:44:14;;;;;;;;;;;6.70;99.90;;;;;;5051036;28;19908;-72
2022/04/25 02:46:40;;;;;;;;;;;6.90;99.90;;;;;;5051034;28;19913;-72
2022/04/25 02:49:05;;;;;;;;;;;6.90;99.90;;;;;;5049815;28;19909;-72
2022/04/25 02:51:31;;;;;;;;;;;7.00;99.90;;;;;;5050599;28;20239;-72
2022/04/25 02:53:56;;;;;;;;;;;7.00;99.90;;;;;;5053247;28;19913;-72
2022/04/25 02:56:22;;;;;;;;;;;6.90;99.90;;;;;;5055189;28;20000;-72
2022/04/25 02:58:47;;;;;;;;;;;7.00;99.90;;;;;;5055180;28;19909;-72
2022/04/25 03:01:13;;;;;;;;;;;7.00;99.90;;;;;;5054607;28;19912;-72
2022/04/25 03:03:39;;;;;;;;;;;7.00;99.90;;;;;;5054654;28;20003;-72
2022/04/25 03:06:06;;;;;;;;;;;6.90;99.90;;;;;;5054814;28;20060;-72
2022/04/25 03:08:33;;;;;;;;;;;6.90;99.90;;;;;;5054833;28;19944;-72
2022/04/25 03:10:58;;;;;;;;;;;6.70;99.90;;;;;;5054727;28;19996;-72
2022/04/25 03:13:24;;;;;;;;;;;6.50;99.90;;;;;;5054891;28;20235;-72
2022/04/25 03:15:50;;;;;;;;;;;6.60;99.90;;;;;;5054418;28;19912;-72
2022/04/25 03:18:19;;;;;;;;;;;6.80;99.90;;;;;;5054443;28;19974;-72
2022/04/25 03:20:46;;;;;;;;;;;6.80;99.90;;;;;;5051400;28;19920;-72
2022/04/25 03:23:11;;;;;;;;;;;6.80;99.90;;;;;;5049141;28;19936;-72
2022/04/25 03:25:38;;;;;;;;;;;6.50;99.90;;;;;;5054383;28;20366;-72
2022/04/25 03:28:04;;;;;;;;;;;6.30;99.90;;;;;;5054031;28;19947;-72
2022/04/25 03:30:30;;;;;;;;;;;6.00;99.90;;;;;;5054453;28;19913;-72
2022/04/25 03:32:58;;;;;;;;;;;6.00;99.90;;;;;;5052137;28;19990;-72
2022/04/25 03:35:24;;;;;;;;;;;5.90;99.90;;;;;;5052372;28;19913;-72
2022/04/25 03:37:50;;;;;;;;;;;5.80;99.90;;;;;;5054169;28;20384;-72
2022/04/25 03:40:16;;;;;;;;;;;5.80;99.90;;;;;;5054265;28;19920;-72
2022/04/25 03:42:43;;;;;;;;;;;5.70;99.90;;;;;;5054003;28;20415;-72
2022/04/25 03:45:09;;;;;;;;;;;5.70;99.90;;;;;;5054186;28;19919;-72
2022/04/25 03:47:35;;;;;;;;;;;5.60;99.90;;;;;;5054311;28;19915;-72
2022/04/25 03:50:00;;;;;;;;;;;5.50;99.90;;;;;;5052512;28;19909;-72
2022/04/25 03:52:26;;;;;;;;;;;5.30;99.90;;;;;;5053738;28;20049;-72
2022/04/25 03:57:36;;;;;;;;;;;5.20;99.90;;;;;;5054827;28;19954;-72
2022/04/25 04:00:02;;;;;;;;;;;5.30;99.90;;;;;;5053789;28;20324;-72
2022/04/25 04:02:28;;;;;;;;;;;5.30;99.90;;;;;;5053708;28;19912;-72
2022/04/25 04:04:53;;;;;;;;;;;5.50;99.90;;;;;;5052516;28;20381;-72
2022/04/25 04:07:19;;;;;;;;;;;5.60;99.90;;;;;;5054159;28;19908;-72
2022/04/25 04:09:44;;;;;;;;;;;5.70;99.90;;;;;;5051015;28;19916;-72
2022/04/25 04:12:10;;;;;;;;;;;5.80;99.90;;;;;;5053121;28;19913;-72
2022/04/25 04:14:36;;;;;;;;;;;5.80;99.90;;;;;;5053454;28;20479;-72
2022/04/25 04:17:02;;;;;;;;;;;5.80;99.90;;;;;;5053591;28;20066;-72
2022/04/25 04:19:28;;;;;;;;;;;5.80;99.90;;;;;;5053657;28;20229;-72
2022/04/25 04:21:53;;;;;;;;;;;5.80;99.90;;;;;;5053381;28;19916;-72
2022/04/25 04:24:19;;;;;;;;;;;5.80;99.90;;;;;;5053252;28;19920;-72
2022/04/25 04:26:45;;;;;;;;;;;5.90;99.90;;;;;;5053379;28;19939;-72
2022/04/25 04:29:11;;;;;;;;;;;5.90;99.90;;;;;;5053351;28;20308;-72
2022/04/25 04:31:37;;;;;;;;;;;5.90;99.90;;;;;;5053142;28;19999;-72
2022/04/25 04:34:02;;;;;;;;;;;5.90;99.90;;;;;;5053178;28;20384;-72
2022/04/25 04:36:29;;;;;;;;;;;5.80;99.90;;;;;;5053398;28;20374;-72
2022/04/25 04:38:54;;;;;;;;;;;5.80;99.90;;;;;;5050629;28;19915;-72
2022/04/25 04:41:20;;;;;;;;;;;5.90;99.90;;;;;;5052703;28;20015;-72
2022/04/25 04:43:45;;;;;;;;;;;5.90;99.90;;;;;;5052818;28;20273;-72
2022/04/25 04:46:11;;;;;;;;;;;6.10;99.90;;;;;;5053123;28;19913;-72
2022/04/25 04:48:36;;;;;;;;;;;6.20;99.90;;;;;;5047689;28;20329;-72
2022/04/25 04:51:02;;;;;;;;;;;6.30;99.90;;;;;;5051164;28;19909;-72
2022/04/25 04:53:27;;;;;;;;;;;6.40;99.90;;;;;;5053175;28;19913;-72
2022/04/25 04:55:53;;;;;;;;;;;6.40;99.90;;;;;;5052877;28;20293;-72
2022/04/25 04:58:19;;;;;;;;;;;6.40;99.90;;;;;;5052971;28;20362;-72
2022/04/25 05:00:45;;;;;;;;;;;6.40;99.90;;;;;;5052828;28;20328;-72
2022/04/25 05:03:15;;;;;;;;;;;6.40;99.90;;;;;;5051982;28;19913;-72
2022/04/25 05:05:41;;;;;;;;;;;6.50;99.90;;;;;;5052993;28;19944;-72
2022/04/25 05:08:07;;;;;;;;;;;6.60;99.90;;;;;;5046177;28;19944;-72
2022/04/25 05:10:32;;;;;;;;;;;6.60;99.90;;;;;;5052295;28;19913;-72
2022/04/25 05:12:58;;;;;;;;;;;6.60;99.90;;;;;;5052355;28;19909;-72
2022/04/25 05:15:23;;;;;;;;;;;6.70;99.90;;;;;;5052259;28;20277;-72
2022/04/25 05:17:50;;;;;;;;;;;6.70;99.90;;;;;;5052245;28;19967;-72
2022/04/25 05:20:17;;;;;;;;;;;6.80;99.90;;;;;;5052359;28;19913;-72
2022/04/25 05:22:44;;;;;;;;;;;6.80;99.90;;;;;;5052027;28;20007;-72
2022/04/25 05:25:10;;;;;;;;;;;6.80;99.90;;;;;;5052084;28;19919;-72
2022/04/25 05:27:38;;;;;;;;;;;7.00;99.90;;;;;;5052209;28;20274;-72
2022/04/25 05:30:04;;;;;;;;;;;7.00;99.90;;;;;;5052227;28;20412;-72
2022/04/25 05:32:40;;;;;;;;;;;7.10;99.90;;;;;;5049191;28;20323;-72
2022/04/25 05:35:06;;;;;;;;;;;7.10;99.90;;;;;;5051561;28;19908;-72
2022/04/25 05:37:31;;;;;;;;;;;7.20;99.90;;;;;;5048434;28;20007;-72
2022/04/25 05:39:56;;;;;;;;;;;7.20;99.90;;;;;;5055397;28;20016;-72
2022/04/25 05:42:22;;;;;;;;;;;7.30;99.90;;;;;;5051723;28;20285;-72
2022/04/25 05:44:48;;;;;;;;;;;7.30;99.90;;;;;;5048263;28;19952;-72
2022/04/25 05:47:13;;;;;;;;;;;7.40;99.90;;;;;;5049526;28;20427;-72
2022/04/25 05:52:22;;;;;;;;;;;7.50;99.90;;;;;;5049825;28;19992;-72
2022/04/25 05:54:49;;;;;;;;;;;7.50;99.90;;;;;;5051601;28;19944;-72
2022/04/25 05:57:14;;;;;;;;;;;7.60;99.90;;;;;;5051611;28;20019;-72
2022/04/25 05:59:40;;;;;;;;;;;7.80;99.90;;;;;;5051591;28;20401;-72
2022/04/25 06:02:07;;;;;;;;;;;7.70;99.90;;;;;;5047410;28;19951;-72
2022/04/25 06:04:32;;;;;;;;;;;7.70;99.90;;;;;;5048278;28;19909;-72
2022/04/25 06:06:59;;;;;;;;;;;7.80;99.90;;;;;;5047705;28;20395;-72
2022/04/25 06:09:26;;;;;;;;;;;7.70;99.90;;;;;;5051188;28;20389;-72
2022/04/25 06:11:52;;;;;;;;;;;7.70;99.90;;;;;;5048836;28;19915;-73
2022/04/25 06:14:18;;;;;;;;;;;7.90;99.90;;;;;;5045933;28;19916;-72
2022/04/25 06:16:44;;;;;;;;;;;8.10;99.90;;;;;;5062144;28;19912;-72
2022/04/25 06:19:10;;;;;;;;;;;8.40;99.90;;;;;;5044666;28;20362;-72
2022/04/25 06:21:35;;;;;;;;;;;8.60;99.90;;;;;;5049517;28;19913;-73
2022/04/25 06:24:01;;;;;;;;;;;8.60;99.90;;;;;;5050187;28;19920;-72
2022/04/25 06:26:28;;;;;;;;;;;8.40;99.90;;;;;;5047780;28;19924;-72
2022/04/25 06:28:53;;;;;;;;;;;8.50;99.90;;;;;;5046273;28;19913;-72
2022/04/25 06:31:22;;;;;;;;;;;8.60;99.90;;;;;;5045486;28;19913;-72
2022/04/25 06:33:48;;;;;;;;;;;8.80;99.90;;;;;;5047568;28;19916;-72
2022/04/25 06:36:13;;;;;;;;;;;8.70;99.90;;;;;;5050933;28;19916;-72
2022/04/25 06:38:39;;;;;;;;;;;8.70;99.90;;;;;;5047584;28;19951;-72
2022/04/25 06:41:04;;;;;;;;;;;8.60;99.90;;;;;;5053232;28;19919;-72
2022/04/25 06:43:31;;;;;;;;;;;8.60;99.90;;;;;;5050723;28;19909;-72
2022/04/25 06:45:57;;;;;;;;;;;8.70;99.90;;;;;;5051157;28;20102;-72
2022/04/25 06:48:22;;;;;;;;;;;8.80;99.90;;;;;;5050903;28;20038;-72
2022/04/25 06:50:48;;;;;;;;;;;8.70;99.90;;;;;;5049494;28;19909;-72
2022/04/25 06:53:14;;;;;;;;;;;8.80;99.90;;;;;;5043959;28;19966;-72
2022/04/25 06:55:40;;;;;;;;;;;9.00;99.90;;;;;;5049333;28;19983;-73
2022/04/25 06:58:06;;;;;;;;;;;9.00;99.90;;;;;;5050870;28;20429;-72
2022/04/25 07:00:32;;;;;;;;;;;9.30;99.90;;;;;;5050640;28;19920;-72
2022/04/25 07:02:57;;;;;;;;;;;9.30;99.90;;;;;;5044365;28;19987;-72
2022/04/25 07:05:24;;;;;;;;;;;9.30;99.90;;;;;;5047350;28;19916;-72
2022/04/25 07:07:50;;;;;;;;;;;9.60;99.90;;;;;;5048494;28;19916;-72
2022/04/25 07:10:15;;;;;;;;;;;9.90;99.90;;;;;;5048335;28;20374;-72
2022/04/25 07:12:42;;;;;;;;;;;10.30;99.90;;;;;;5050502;28;19951;-72
2022/04/25 07:15:08;;;;;;;;;;;10.80;99.90;;;;;;5050711;28;19913;-72
2022/04/25 07:17:34;;;;;;;;;;;10.90;99.90;;;;;;5050565;28;20011;-72
2022/04/25 07:20:00;;;;;;;;;;;11.00;99.90;;;;;;5048430;28;20012;-72
2022/04/25 07:30:38;;;;;;;;;;;10.90;99.90;;;;;;5051818;28;19959;-72
2022/04/25 07:33:03;;;;;;;;;;;10.80;99.90;;;;;;5050010;28;19913;-72
2022/04/25 07:35:29;;;;;;;;;;;10.90;99.90;;;;;;5050496;28;20366;-72
2022/04/25 07:37:57;;;;;;;;;;;10.60;99.90;;;;;;5048833;28;19912;-72
2022/04/25 07:40:23;;;;;;;;;;;10.90;99.90;;;;;;5055287;28;19978;-72
2022/04/25 07:42:49;;;;;;;;;;;10.90;99.90;;;;;;5054023;28;20427;-73
2022/04/25 07:45:14;;;;;;;;;;;11.00;99.90;;;;;;5054474;28;19909;-73
2022/04/25 07:47:43;;;;;;;;;;;10.90;99.90;;;;;;5054619;28;19913;-72
2022/04/25 07:50:11;;;;;;;;;;;11.10;99.90;;;;;;5054309;28;19908;-72
2022/04/25 07:52:37;;;;;;;;;;;10.90;99.90;;;;;;5053735;28;19952;-72
2022/04/25 07:55:03;;;;;;;;;;;10.60;99.90;;;;;;5053790;28;19922;-72
2022/04/25 07:57:28;;;;;;;;;;;10.10;99.90;;;;;;5054032;28;19913;-72
2022/04/25 07:59:54;;;;;;;;;;;10.00;99.90;;;;;;5053904;28;20000;-72
2022/04/25 08:02:20;;;;;;;;;;;10.10;99.90;;;;;;5052647;28;19935;-73
2022/04/25 08:04:45;;;;;;;;;;;10.30;99.90;;;;;;5053538;28;20259;-72
2022/04/25 08:07:12;;;;;;;;;;;10.60;99.90;;;;;;5052903;28;19909;-72
2022/04/25 08:09:37;;;;;;;;;;;10.80;99.90;;;;;;5050921;28;19920;-72
2022/04/25 08:20:15;;;;;;;;;;;11.70;99.90;;;;;;5048474;28;19919;-73
2022/04/25 08:22:41;;;;;;;;;;;11.40;99.90;;;;;;5049726;28;20324;-73
2022/04/25 08:25:08;;;;;;;;;;;12.60;99.90;;;;;;5052507;28;19947;-73
2022/04/25 08:27:34;;;;;;;;;;;15.20;99.90;;;;;;5053221;28;20210;-74
2022/04/25 08:29:59;;;;;;;;;;;16.50;99.90;;;;;;5049590;28;19995;-73
2022/04/25 08:32:25;;;;;;;;;;;15.50;99.90;;;;;;5052380;28;19909;-73
2022/04/25 08:34:51;;;;;;;;;;;14.80;99.90;;;;;;5053060;28;20435;-73
2022/04/25 08:37:16;;;;;;;;;;;15.50;99.90;;;;;;5053104;28;19909;-73
2022/04/25 08:39:42;;;;;;;;;;;16.00;99.90;;;;;;5046456;28;19909;-73
2022/04/25 08:42:09;;;;;;;;;;;16.50;99.90;;;;;;5052845;28;19917;-73
2022/04/25 08:44:34;;;;;;;;;;;14.70;99.90;;;;;;5050404;28;19916;-73
2022/04/25 08:47:01;;;;;;;;;;;14.20;99.90;;;;;;5052736;28;19909;-73
2022/04/25 08:49:27;;;;;;;;;;;14.20;99.90;;;;;;5051640;28;19909;-73
2022/04/25 08:51:58;;;;;;;;;;;13.80;99.90;;;;;;5051423;28;20284;-73
2022/04/25 08:54:31;;;;;;;;;;;14.00;99.90;;;;;;5052794;28;19909;-73
2022/04/25 08:56:57;;;;;;;;;;;13.30;99.90;;;;;;5046554;28;20348;-73
2022/04/25 08:59:23;;;;;;;;;;;13.20;99.90;;;;;;5052553;28;19909;-73
2022/04/25 09:01:49;;;;;;;;;;;13.10;99.90;;;;;;5045825;28;19920;-73
2022/04/25 09:04:14;;;;;;;;;;;13.00;99.90;;;;;;5052222;28;19916;-73
2022/04/25 09:06:40;;;;;;;;;;;12.60;99.90;;;;;;5052699;28;20346;-73
2022/04/25 09:09:06;;;;;;;;;;;12.60;99.90;;;;;;5052649;28;20003;-73
2022/04/25 09:14:16;;;;;;;;;;;12.90;99.90;;;;;;5046698;28;20370;-74
2022/04/25 09:16:41;;;;;;;;;;;13.80;99.90;;;;;;5052314;28;19909;-73
2022/04/25 09:19:07;;;;;;;;;;;13.70;99.90;;;;;;5051332;28;20456;-73
2022/04/25 09:21:42;;;;;;;;;;;13.40;99.90;;;;;;5051693;28;20172;-73
2022/04/25 09:24:20;;;;;;;;;;;13.90;99.90;;;;;;5051782;28;20374;-73
2022/04/25 09:26:46;;;;;;;;;;;15.20;99.90;;;;;;5052068;28;19943;-73
2022/04/25 09:29:11;;;;;;;;;;;17.80;99.90;;;;;;5049908;28;19913;-73
2022/04/25 09:31:46;;;;;;;;;;;17.40;96.80;;;;;;5051632;28;19912;-73
2022/04/25 09:34:15;;;;;;;;;;;18.70;96.40;;;;;;5051445;28;19909;-71
2022/04/25 09:36:47;;;;;;;;;;;20.00;91.90;;;;;;5051836;28;19909;-73
2022/04/25 09:39:28;;;;;;;;;;;18.40;90.80;;;;;;5052234;28;19913;-73
2022/04/25 09:41:54;;;;;;;;;;;20.70;92.60;;;;;;5051624;28;20096;-73
2022/04/25 09:44:19;;;;;;;;;;;19.70;83.10;;;;;;5051600;28;19932;-73
2022/04/25 09:46:47;;;;;;;;;;;17.20;92.60;;;;;;5051806;28;19909;-73
2022/04/25 09:49:18;;;;;;;;;;;18.10;90.90;;;;;;5050773;28;19983;-73
2022/04/25 09:52:03;;;;;;;;;;;20.90;86.90;;;;;;5050922;28;19988;-74
2022/04/25 09:54:28;;;;;;;;;;;21.30;83.90;;;;;;5046532;28;20354;-73
2022/04/25 09:56:54;;;;;;;;;;;21.20;76.10;;;;;;5051531;28;20004;-73
2022/04/25 09:59:21;;;;;;;;;;;20.00;81.40;;;;;;5051279;28;19908;-73
2022/04/25 10:02:00;;;;;;;;;;;20.10;84.50;;;;;;5043501;28;19913;-73
2022/04/25 10:04:33;;;;;;;;;;;20.40;81.40;;;;;;5047072;28;19913;-73
2022/04/25 10:07:03;;;;;;;;;;;18.90;90.20;;;;;;5051326;28;19909;-73
2022/04/25 10:09:30;;;;;;;;;;;17.60;83.20;;;;;;5051376;28;20366;-73
2022/04/25 10:12:00;;;;;;;;;;;16.20;89.10;;;;;;5046720;28;20026;-73
2022/04/25 10:14:26;;;;;;;;;;;15.50;92.70;;;;;;5050808;28;20375;-73
2022/04/25 10:16:52;;;;;;;;;;;14.40;92.50;;;;;;5050913;28;19959;-73
2022/04/25 10:19:18;;;;;;;;;;;14.40;93.20;;;;;;5048837;28;19995;-73
2022/04/25 10:21:45;;;;;;;;;;;14.30;95.00;;;;;;5054250;28;20005;-73
2022/04/25 10:24:11;;;;;;;;;;;14.40;93.20;;;;;;5050822;28;20336;-73
2022/04/25 10:26:37;;;;;;;;;;;14.00;94.50;;;;;;5051096;28;19909;-73
2022/04/25 10:29:08;;;;;;;;;;;14.50;93.90;;;;;;5050545;28;19925;-73
2022/04/25 10:31:44;;;;;;;;;;;14.90;93.70;;;;;;5053298;28;19913;-73
2022/04/25 10:34:10;;;;;;;;;;;14.50;93.60;;;;;;5050602;28;20388;-73
2022/04/25 10:36:36;;;;;;;;;;;14.50;95.30;;;;;;5050926;28;19909;-73
2022/04/25 10:39:20;;;;;;;;;;;14.50;95.10;;;;;;5050921;28;19916;-73
2022/04/25 10:44:42;;;;;;;;;;;13.90;95.00;;;;;;5050497;28;19915;-73
2022/04/25 10:47:11;;;;;;;;;;;13.80;96.50;;;;;;5050918;28;20385;-73
2022/04/25 10:50:09;;;;;;;;;;;13.70;96.80;;;;;;5050624;28;19916;-73
2022/04/25 10:55:09;;;;;;;;;;;13.70;98.40;;;;;;5050113;28;19913;-73
2022/04/25 10:57:34;;;;;;;;;;;13.20;97.50;;;;;;5051058;28;19909;-73
2022/04/25 11:00:00;;;;;;;;;;;13.00;98.00;;;;;;5050643;28;19915;-73
2022/04/25 11:02:27;;;;;;;;;;;12.70;98.40;;;;;;5050791;28;19909;-73
2022/04/25 11:05:10;;;;;;;;;;;12.40;99.90;;;;;;5050179;28;19912;-73
2022/04/25 11:07:37;;;;;;;;;;;12.30;99.90;;;;;;5050789;28;19916;-73
2022/04/25 11:10:03;;;;;;;;;;;12.10;99.90;;;;;;5050767;28;19954;-72
2022/04/25 11:12:48;;;;;;;;;;;11.60;99.90;;;;;;5050524;28;20314;-72
2022/04/25 11:15:33;;;;;;;;;;;11.50;99.90;;;;;;5051023;28;19908;-72
2022/04/25 11:18:18;;;;;;;;;;;11.60;99.90;;;;;;5051586;28;20730;-73
2022/04/25 11:20:54;;;;;;;;;;;11.00;99.90;;;;;;5054116;28;19913;-73
2022/04/25 11:23:23;;;;;;;;;;;10.90;99.90;;;;;;5048989;28;20023;-72
2022/04/25 11:25:48;;;;;;;;;;;10.90;99.90;;;;;;5049650;28;20354;-73
2022/04/25 11:28:14;;;;;;;;;;;10.50;99.90;;;;;;5054490;28;19908;-73
2022/04/25 11:30:41;;;;;;;;;;;10.50;99.90;;;;;;5052089;28;19909;-73
2022/04/25 11:33:07;;;;;;;;;;;10.70;99.90;;;;;;5053572;28;20425;-73
2022/04/25 11:35:33;;;;;;;;;;;10.20;99.90;;;;;;5053964;28;19958;-73
2022/04/25 11:37:59;;;;;;;;;;;10.00;99.90;;;;;;5053967;28;19912;-73
2022/04/25 11:40:24;;;;;;;;;;;9.80;99.90;;;;;;5054079;28;19913;-73
2022/04/25 11:42:50;;;;;;;;;;;9.80;99.90;;;;;;5053779;28;19909;-73
2022/04/25 11:45:16;;;;;;;;;;;9.50;99.90;;;;;;5053689;28;19915;-73
2022/04/25 11:47:41;;;;;;;;;;;9.40;99.90;;;;;;5054046;28;19909;-73
2022/04/25 11:50:10;;;;;;;;;;;9.30;99.90;;;;;;5053758;28;19955;-73
2022/04/25 11:52:43;;;;;;;;;;;9.80;99.90;;;;;;5053677;28;19909;-73
2022/04/25 11:55:09;;;;;;;;;;;10.10;99.90;;;;;;5047599;28;19920;-73
2022/04/25 11:57:38;;;;;;;;;;;10.40;99.90;;;;;;5053577;28;19970;-73
2022/04/25 12:00:06;;;;;;;;;;;10.40;99.90;;;;;;5053626;28;20354;-73
2022/04/25 12:02:35;;;;;;;;;;;10.60;99.90;;;;;;5050750;28;19912;-74
2022/04/25 12:05:01;;;;;;;;;;;10.80;99.90;;;;;;5052997;28;19923;-73
2022/04/25 12:07:26;;;;;;;;;;;10.90;99.90;;;;;;5053480;28;19909;-73
2022/04/25 12:15:35;;;;;;;;;;;11.60;99.90;;;;;;5053494;28;19959;-73
2022/04/25 12:18:23;;;;;;;;;;;11.80;99.90;;;;;;5051536;28;19917;-73
2022/04/25 12:20:49;;;;;;;;;;;11.40;99.90;;;;;;5049459;28;19982;-73
2022/04/25 12:23:44;;;;;;;;;;;11.70;99.90;;;;;;5052894;28;19995;-73
2022/04/25 12:26:35;;;;;;;;;;;11.80;99.90;;;;;;5041683;28;19917;-73
2022/04/25 12:29:01;;;;;;;;;;;11.50;99.90;;;;;;5047449;28;20007;-74
2022/04/25 12:31:28;;;;;;;;;;;11.90;99.90;;;;;;5046431;28;19909;-73
2022/04/25 12:33:53;;;;;;;;;;;11.90;99.90;;;;;;5052746;28;19909;-73
2022/04/25 12:36:22;;;;;;;;;;;11.50;99.90;;;;;;5052822;28;19919;-74
2022/04/25 12:38:50;;;;;;;;;;;11.40;99.90;;;;;;5053131;28;19913;-73
2022/04/25 12:41:23;;;;;;;;;;;11.80;99.90;;;;;;5052694;28;20167;-73
2022/04/25 12:43:50;;;;;;;;;;;11.70;99.90;;;;;;5052761;28;19944;-73
2022/04/25 12:46:18;;;;;;;;;;;11.90;99.90;;;;;;5052743;28;19908;-73
2022/04/25 12:48:56;;;;;;;;;;;11.80;99.90;;;;;;5052501;28;19915;-73
2022/04/25 12:51:26;;;;;;;;;;;13.10;99.90;;;;;;5050918;28;19944;-73
2022/04/25 12:53:52;;;;;;;;;;;14.30;99.90;;;;;;5049191;28;20336;-73
2022/04/25 12:56:24;;;;;;;;;;;16.20;99.90;;;;;;5052510;28;19913;-73
2022/04/25 12:58:50;;;;;;;;;;;18.40;99.90;;;;;;5052743;28;19916;-73
2022/04/25 13:01:28;;;;;;;;;;;16.20;99.90;;;;;;5052261;28;19979;-74
2022/04/25 13:04:03;;;;;;;;;;;15.20;99.90;;;;;;5052502;28;20430;-74
2022/04/25 13:06:29;;;;;;;;;;;16.30;99.90;;;;;;5052304;28;19909;-73
2022/04/25 13:08:55;;;;;;;;;;;18.60;93.90;;;;;;5051477;28;19966;-73
2022/04/25 13:11:21;;;;;;;;;;;20.30;92.60;;;;;;5051103;28;19909;-74
2022/04/25 13:13:47;;;;;;;;;;;19.30;90.80;;;;;;5049988;28;19913;-71
2022/04/25 13:16:13;;;;;;;;;;;20.10;90.20;;;;;;5052105;28;19968;-71
2022/04/25 13:18:38;;;;;;;;;;;20.70;89.00;;;;;;5051504;28;20321;-71
2022/04/25 13:21:04;;;;;;;;;;;19.60;90.00;;;;;;5051243;28;19919;-71
2022/04/25 13:23:30;;;;;;;;;;;20.00;83.00;;;;;;5050055;28;19909;-71
2022/04/25 13:25:55;;;;;;;;;;;19.50;83.80;;;;;;5051956;28;19913;-72
2022/04/25 13:28:21;;;;;;;;;;;19.60;90.00;;;;;;5051842;28;20031;-72
2022/04/25 13:30:46;;;;;;;;;;;19.50;84.30;;;;;;5049857;28;20388;-72
2022/04/25 13:33:12;;;;;;;;;;;18.00;87.80;;;;;;5050967;28;19925;-72
2022/04/25 13:35:37;;;;;;;;;;;19.80;83.90;;;;;;5051865;28;19913;-73
2022/04/25 13:38:03;;;;;;;;;;;20.80;83.70;;;;;;5051710;28;19992;-73
2022/04/25 13:40:28;;;;;;;;;;;20.10;81.40;;;;;;5051910;28;19912;-73
2022/04/25 13:42:54;;;;;;;;;;;19.70;81.30;;;;;;5051322;28;19909;-72
2022/04/25 13:45:19;;;;;;;;;;;20.10;84.80;;;;;;5051304;28;19916;-72
2022/04/25 13:47:45;;;;;;;;;;;20.00;80.20;;;;;;5051659;28;19916;-72
2022/04/25 13:50:10;;;;;;;;;;;18.90;83.40;;;;;;5048068;28;19916;-71
2022/04/25 13:52:36;;;;;;;;;;;15.00;92.10;;;;;;5050783;28;19931;-72
2022/04/25 13:55:02;;;;;;;;;;;14.50;92.30;;;;;;5050897;28;19931;-72
2022/04/25 13:57:28;;;;;;;;;;;18.50;86.00;;;;;;5051380;28;20381;-72
2022/04/25 13:59:53;;;;;;;;;;;15.70;92.10;;;;;;5051430;28;19909;-72
2022/04/25 14:05:03;;;;;;;;;;;14.40;92.60;;;;;;5048822;28;19935;-71
2022/04/25 14:07:28;;;;;;;;;;;13.30;94.70;;;;;;5051121;28;19908;-73
2022/04/25 14:09:54;;;;;;;;;;;13.00;96.80;;;;;;5051060;28;19908;-73
2022/04/25 14:12:19;;;;;;;;;;;12.80;96.90;;;;;;5051090;28;19910;-73
2022/04/25 14:14:45;;;;;;;;;;;12.90;98.30;;;;;;5050205;28;19971;-73
2022/04/25 14:17:11;;;;;;;;;;;13.00;99.00;;;;;;5051199;28;20328;-73
2022/04/25 14:19:36;;;;;;;;;;;12.70;98.60;;;;;;5042761;28;19932;-73
2022/04/25 14:22:03;;;;;;;;;;;12.40;99.70;;;;;;5050466;28;19920;-73
2022/04/25 14:24:28;;;;;;;;;;;12.60;99.90;;;;;;5042860;28;19908;-73
2022/04/25 14:26:54;;;;;;;;;;;15.70;97.10;;;;;;5050565;28;19970;-73
2022/04/25 14:29:19;;;;;;;;;;;19.30;86.50;;;;;;5048424;28;19912;-73
2022/04/25 14:31:45;;;;;;;;;;;20.90;86.40;;;;;;5045790;28;19909;-73
2022/04/25 14:34:10;;;;;;;;;;;21.10;76.70;;;;;;5050378;28;19980;-73
2022/04/25 14:36:37;;;;;;;;;;;21.00;77.00;;;;;;5050947;28;19909;-70
2022/04/25 14:39:03;;;;;;;;;;;21.30;77.70;;;;;;5049462;28;19908;-72
2022/04/25 14:41:28;;;;;;;;;;;19.60;80.60;;;;;;5050899;28;20254;-71
2022/04/25 14:43:54;;;;;;;;;;;20.30;78.70;;;;;;5050370;28;19916;-71
2022/04/25 14:46:19;;;;;;;;;;;20.60;80.10;;;;;;5044338;28;19920;-71
2022/04/25 14:48:45;;;;;;;;;;;21.30;77.20;;;;;;5052043;28;19909;-71
2022/04/25 14:56:38;;;;;;;;;;;21.70;75.30;;;;;;5052485;28;19916;-71
2022/04/25 14:59:04;;;;;;;;;;;21.90;74.30;;;;;;5057933;28;19909;-70
2022/04/25 15:01:30;;;;;;;;;;;21.90;73.00;;;;;;5057723;28;20285;-71
2022/04/25 15:03:56;;;;;;;;;;;22.10;76.70;;;;;;5052200;28;20003;-75
2022/04/25 15:06:22;;;;;;;;;;;21.70;71.20;;;;;;5055361;28;19920;-70
2022/04/25 15:08:47;;;;;;;;;;;21.90;70.60;;;;;;5055854;28;19916;-70
2022/04/25 15:11:13;;;;;;;;;;;21.40;72.80;;;;;;5044950;28;19920;-71